createdAt,value
2018-08-20T00:00:54.391Z,101089.48
2018-08-20T00:01:20.404Z,101085.15
2018-08-20T00:01:45.470Z,101082.92
2018-08-20T00:02:07.375Z,101081.09
2018-08-20T00:02:34.568Z,101086.85
2018-08-20T00:02:56.314Z,101084.23
2018-08-20T00:03:18.081Z,101082.00
2018-08-20T00:03:44.147Z,101080.30
2018-08-20T00:04:05.910Z,101084.23
2018-08-20T00:04:27.656Z,101081.61
2018-08-20T00:04:50.418Z,101082.92
2018-08-20T00:05:12.179Z,101078.98
2018-08-20T00:05:36.268Z,101081.09
2018-08-20T00:05:58.026Z,101081.09
2018-08-20T00:06:19.993Z,101079.91
2018-08-20T00:06:41.902Z,101076.76
2018-08-20T00:07:03.810Z,101076.76
2018-08-20T00:07:25.603Z,101081.21
2018-08-20T00:07:47.381Z,101077.67
2018-08-20T00:08:09.143Z,101077.16
2018-08-20T00:08:30.916Z,101077.67
2018-08-20T00:08:52.691Z,101074.53
2018-08-20T00:09:14.484Z,101083.31
2018-08-20T00:09:41.769Z,101074.13
2018-08-20T00:10:03.536Z,101080.30
2018-08-20T00:10:25.299Z,101075.45
2018-08-20T00:10:47.051Z,101080.30
2018-08-20T00:11:08.808Z,101082.53
2018-08-20T00:11:30.598Z,101078.59
2018-08-20T00:11:52.365Z,101080.69
2018-08-20T00:12:14.125Z,101076.76
2018-08-20T00:12:35.876Z,101078.98
2018-08-20T00:12:57.614Z,101075.97
2018-08-20T00:13:19.370Z,101080.69
2018-08-20T00:13:41.130Z,101080.69
2018-08-20T00:14:02.897Z,101081.09
2018-08-20T00:14:24.662Z,101080.30
2018-08-20T00:14:46.424Z,101073.73
2018-08-20T00:15:08.187Z,101081.09
2018-08-20T00:15:29.934Z,101082.92
2018-08-20T00:15:51.920Z,101077.67
2018-08-20T00:16:13.677Z,101076.76
2018-08-20T00:16:35.417Z,101076.76
2018-08-20T00:16:57.174Z,101075.05
2018-08-20T00:17:18.931Z,101077.67
2018-08-20T00:17:40.776Z,101081.61
2018-08-20T00:18:02.523Z,101077.67
2018-08-20T00:18:29.797Z,101074.53
2018-08-20T00:18:51.563Z,101081.61
2018-08-20T00:19:13.947Z,101075.84
2018-08-20T00:19:35.704Z,101078.98
2018-08-20T00:19:57.464Z,101082.53
2018-08-20T00:20:19.262Z,101078.98
2018-08-20T00:20:41.016Z,101074.13
2018-08-20T00:21:02.775Z,101078.98
2018-08-20T00:21:24.527Z,101072.43
2018-08-20T00:21:46.278Z,101074.13
2018-08-20T00:22:08.052Z,101079.55
2018-08-20T00:22:29.811Z,101070.20
2018-08-20T00:22:51.571Z,101078.98
2018-08-20T00:23:13.340Z,101076.36
2018-08-20T00:23:35.112Z,101061.81
2018-08-20T00:23:56.871Z,101072.43
2018-08-20T00:24:18.655Z,101067.97
2018-08-20T00:24:40.409Z,101068.89
2018-08-20T00:25:02.163Z,101068.49
2018-08-20T00:25:23.914Z,101070.59
2018-08-20T00:25:45.696Z,101072.83
2018-08-20T00:26:07.468Z,101073.73
2018-08-20T00:26:29.250Z,101065.34
2018-08-20T00:26:51.014Z,101070.36
2018-08-20T00:27:12.771Z,101073.22
2018-08-20T00:27:34.560Z,101068.89
2018-08-20T00:27:56.332Z,101073.22
2018-08-20T00:28:18.141Z,101075.45
2018-08-20T00:28:39.908Z,101061.81
2018-08-20T00:29:01.659Z,101068.89
2018-08-20T00:29:23.427Z,101069.68
2018-08-20T00:29:45.173Z,101070.59
2018-08-20T00:30:06.928Z,101072.30
2018-08-20T00:30:28.674Z,101076.76
2018-08-20T00:30:50.433Z,101069.28
2018-08-20T00:31:12.197Z,101066.66
2018-08-20T00:31:34.519Z,101067.97
2018-08-20T00:31:56.328Z,101067.97
2018-08-20T00:32:18.080Z,101071.52
2018-08-20T00:32:41.043Z,101068.89
2018-08-20T00:33:02.793Z,101062.73
2018-08-20T00:33:24.560Z,101062.33
2018-08-20T00:33:46.315Z,101072.03
2018-08-20T00:34:08.063Z,101060.50
2018-08-20T00:34:29.843Z,101066.66
2018-08-20T00:34:51.597Z,101067.97
2018-08-20T00:35:13.360Z,101065.74
2018-08-20T00:35:35.111Z,101067.58
2018-08-20T00:35:56.875Z,101067.45
2018-08-20T00:36:18.622Z,101070.59
2018-08-20T00:36:40.371Z,101067.06
2018-08-20T00:37:02.132Z,101062.20
2018-08-20T00:37:23.896Z,101068.37
2018-08-20T00:37:46.503Z,101064.44
2018-08-20T00:38:08.249Z,101061.81
2018-08-20T00:38:30.006Z,101067.97
2018-08-20T00:38:51.762Z,101066.66
2018-08-20T00:39:13.515Z,101058.80
2018-08-20T00:39:35.287Z,101059.70
2018-08-20T00:39:57.059Z,101067.19
2018-08-20T00:40:19.590Z,101063.25
2018-08-20T00:40:41.347Z,101069.28
2018-08-20T00:41:03.102Z,101067.58
2018-08-20T00:41:24.842Z,101067.58
2018-08-20T00:41:47.048Z,101064.56
2018-08-20T00:42:08.802Z,101065.34
2018-08-20T00:42:30.549Z,101056.69
2018-08-20T00:42:52.320Z,101060.63
2018-08-20T00:43:14.378Z,101068.37
2018-08-20T00:43:36.125Z,101057.09
2018-08-20T00:43:57.879Z,101063.64
2018-08-20T00:44:19.627Z,101058.40
2018-08-20T00:44:41.409Z,101061.41
2018-08-20T00:45:03.157Z,101061.02
2018-08-20T00:45:24.914Z,101060.11
2018-08-20T00:45:46.667Z,101062.20
2018-08-20T00:46:08.418Z,101066.14
2018-08-20T00:46:30.184Z,101066.27
2018-08-20T00:46:51.940Z,101056.05
2018-08-20T00:47:13.682Z,101066.14
2018-08-20T00:47:35.452Z,101067.06
2018-08-20T00:47:57.239Z,101055.65
2018-08-20T00:48:19.014Z,101059.19
2018-08-20T00:48:40.779Z,101060.89
2018-08-20T00:49:02.539Z,101054.34
2018-08-20T00:49:24.305Z,101058.27
2018-08-20T00:49:46.060Z,101058.80
2018-08-20T00:50:07.865Z,101064.44
2018-08-20T00:50:29.620Z,101059.70
2018-08-20T00:50:51.375Z,101060.11
2018-08-20T00:51:13.135Z,101061.94
2018-08-20T00:51:35.226Z,101051.72
2018-08-20T00:51:56.971Z,101056.56
2018-08-20T00:52:18.756Z,101055.25
2018-08-20T00:52:40.519Z,101064.56
2018-08-20T00:53:02.281Z,101055.77
2018-08-20T00:53:24.058Z,101061.02
2018-08-20T00:53:45.810Z,101062.73
2018-08-20T00:54:07.554Z,101056.56
2018-08-20T00:54:29.328Z,101053.55
2018-08-20T00:54:51.080Z,101052.62
2018-08-20T00:55:12.895Z,101057.87
2018-08-20T00:55:34.660Z,101057.09
2018-08-20T00:55:56.429Z,101054.34
2018-08-20T00:56:18.184Z,101059.19
2018-08-20T00:56:39.933Z,101052.23
2018-08-20T00:57:01.689Z,101054.47
2018-08-20T00:57:23.448Z,101056.17
2018-08-20T00:57:45.190Z,101056.69
2018-08-20T00:58:06.948Z,101050.13
2018-08-20T00:58:28.702Z,101054.47
2018-08-20T00:58:50.468Z,101050.53
2018-08-20T00:59:12.214Z,101049.61
2018-08-20T00:59:33.978Z,101055.77
2018-08-20T00:59:55.731Z,101051.32
2018-08-20T01:00:17.496Z,101058.80
2018-08-20T01:00:39.258Z,101053.55
2018-08-20T01:01:01.024Z,101058.80
2018-08-20T01:01:22.781Z,101057.09
2018-08-20T01:01:44.525Z,101060.89
2018-08-20T01:02:06.275Z,101056.56
2018-08-20T01:02:29.757Z,101056.56
2018-08-20T01:02:51.516Z,101048.97
2018-08-20T01:03:13.297Z,101060.50
2018-08-20T01:03:35.292Z,101050.41
2018-08-20T01:03:57.083Z,101061.81
2018-08-20T01:04:18.850Z,101060.89
2018-08-20T01:04:40.620Z,101058.27
2018-08-20T01:05:02.657Z,101058.27
2018-08-20T01:05:24.471Z,101055.13
2018-08-20T01:05:46.240Z,101053.42
2018-08-20T01:06:08.003Z,101061.41
2018-08-20T01:06:29.798Z,101051.32
2018-08-20T01:06:51.550Z,101053.02
2018-08-20T01:07:13.305Z,101058.80
2018-08-20T01:07:35.099Z,101056.96
2018-08-20T01:07:56.828Z,101052.62
2018-08-20T01:08:18.592Z,101055.65
2018-08-20T01:08:40.353Z,101059.70
2018-08-20T01:09:02.108Z,101057.87
2018-08-20T01:09:23.866Z,101061.02
2018-08-20T01:09:45.639Z,101057.87
2018-08-20T01:10:07.384Z,101056.56
2018-08-20T01:10:29.244Z,101053.81
2018-08-20T01:10:50.995Z,101050.41
2018-08-20T01:11:12.735Z,101055.25
2018-08-20T01:11:34.491Z,101056.17
2018-08-20T01:11:56.248Z,101060.11
2018-08-20T01:12:18.013Z,101056.17
2018-08-20T01:12:39.770Z,101051.32
2018-08-20T01:13:01.560Z,101056.56
2018-08-20T01:13:23.314Z,101055.65
2018-08-20T01:13:45.079Z,101056.96
2018-08-20T01:14:06.860Z,101055.65
2018-08-20T01:14:28.682Z,101057.75
2018-08-20T01:14:50.463Z,101055.65
2018-08-20T01:15:12.219Z,101060.50
2018-08-20T01:15:33.981Z,101055.65
2018-08-20T01:15:55.847Z,101058.40
2018-08-20T01:16:17.603Z,101057.48
2018-08-20T01:16:39.354Z,101054.47
2018-08-20T01:17:01.112Z,101057.61
2018-08-20T01:17:22.995Z,101052.76
2018-08-20T01:17:44.751Z,101057.61
2018-08-20T01:18:06.490Z,101058.40
2018-08-20T01:18:28.249Z,101058.00
2018-08-20T01:18:50.008Z,101056.17
2018-08-20T01:19:11.755Z,101061.02
2018-08-20T01:19:33.516Z,101056.69
2018-08-20T01:19:55.278Z,101056.56
2018-08-20T01:20:17.100Z,101065.34
2018-08-20T01:20:38.852Z,101056.56
2018-08-20T01:21:00.604Z,101056.56
2018-08-20T01:21:22.348Z,101058.80
2018-08-20T01:21:44.090Z,101065.34
2018-08-20T01:22:05.840Z,101064.56
2018-08-20T01:22:27.593Z,101065.74
2018-08-20T01:22:49.354Z,101068.37
2018-08-20T01:23:11.102Z,101068.49
2018-08-20T01:23:32.867Z,101069.28
2018-08-20T01:23:54.610Z,101065.74
2018-08-20T01:24:16.362Z,101062.73
2018-08-20T01:24:38.111Z,101066.14
2018-08-20T01:24:59.871Z,101061.81
2018-08-20T01:25:21.633Z,101065.74
2018-08-20T01:25:43.379Z,101064.04
2018-08-20T01:26:05.128Z,101063.64
2018-08-20T01:26:26.878Z,101062.33
2018-08-20T01:26:48.628Z,101067.19
2018-08-20T01:27:11.067Z,101067.06
2018-08-20T01:27:32.824Z,101056.56
2018-08-20T01:27:54.575Z,101061.81
2018-08-20T01:28:16.351Z,101064.44
2018-08-20T01:28:38.098Z,101062.33
2018-08-20T01:28:59.841Z,101060.11
2018-08-20T01:29:21.596Z,101064.56
2018-08-20T01:29:43.384Z,101070.20
2018-08-20T01:30:05.140Z,101064.95
2018-08-20T01:30:26.895Z,101053.95
2018-08-20T01:30:48.651Z,101058.27
2018-08-20T01:31:10.431Z,101063.13
2018-08-20T01:31:32.184Z,101060.11
2018-08-20T01:31:53.942Z,101060.50
2018-08-20T01:32:15.690Z,101057.87
2018-08-20T01:32:37.459Z,101063.52
2018-08-20T01:33:04.716Z,101056.56
2018-08-20T01:33:26.457Z,101068.37
2018-08-20T01:33:48.217Z,101055.65
2018-08-20T01:34:09.979Z,101063.91
2018-08-20T01:34:31.731Z,101054.73
2018-08-20T01:34:53.493Z,101058.27
2018-08-20T01:35:17.770Z,101060.89
2018-08-20T01:35:39.528Z,101065.74
2018-08-20T01:36:01.282Z,101065.34
2018-08-20T01:36:23.050Z,101059.98
2018-08-20T01:36:45.344Z,101061.41
2018-08-20T01:37:07.101Z,101062.20
2018-08-20T01:37:28.862Z,101061.81
2018-08-20T01:37:50.623Z,101056.17
2018-08-20T01:38:12.390Z,101060.11
2018-08-20T01:38:34.144Z,101065.74
2018-08-20T01:38:55.885Z,101062.20
2018-08-20T01:39:17.658Z,101058.27
2018-08-20T01:39:39.410Z,101063.64
2018-08-20T01:40:01.192Z,101062.73
2018-08-20T01:40:22.953Z,101071.91
2018-08-20T01:40:44.705Z,101060.89
2018-08-20T01:41:06.448Z,101063.52
2018-08-20T01:41:28.230Z,101062.20
2018-08-20T01:41:50.019Z,101059.58
2018-08-20T01:42:11.998Z,101067.06
2018-08-20T01:42:33.764Z,101064.44
2018-08-20T01:42:55.521Z,101056.17
2018-08-20T01:43:17.282Z,101064.04
2018-08-20T01:43:39.040Z,101058.80
2018-08-20T01:44:00.800Z,101063.64
2018-08-20T01:44:22.542Z,101059.70
2018-08-20T01:44:45.171Z,101064.04
2018-08-20T01:45:06.935Z,101056.17
2018-08-20T01:45:28.708Z,101065.34
2018-08-20T01:45:50.451Z,101055.25
2018-08-20T01:46:12.200Z,101067.06
2018-08-20T01:46:33.968Z,101060.50
2018-08-20T01:46:55.728Z,101064.83
2018-08-20T01:47:17.475Z,101063.13
2018-08-20T01:47:39.239Z,101059.19
2018-08-20T01:48:00.995Z,101050.01
2018-08-20T01:48:22.754Z,101055.25
2018-08-20T01:48:44.514Z,101060.50
2018-08-20T01:49:06.275Z,101056.05
2018-08-20T01:49:28.023Z,101064.44
2018-08-20T01:49:49.772Z,101055.25
2018-08-20T01:50:11.539Z,101068.37
2018-08-20T01:50:33.302Z,101064.44
2018-08-20T01:50:55.062Z,101058.27
2018-08-20T01:51:16.809Z,101058.27
2018-08-20T01:51:38.642Z,101061.29
2018-08-20T01:52:00.390Z,101054.73
2018-08-20T01:52:22.143Z,101059.58
2018-08-20T01:52:43.898Z,101063.52
2018-08-20T01:53:05.650Z,101060.37
2018-08-20T01:53:27.394Z,101054.73
2018-08-20T01:53:49.141Z,101056.05
2018-08-20T01:54:10.896Z,101055.65
2018-08-20T01:54:32.675Z,101053.81
2018-08-20T01:54:54.442Z,101058.66
2018-08-20T01:55:16.200Z,101054.34
2018-08-20T01:55:37.960Z,101064.83
2018-08-20T01:55:59.751Z,101060.89
2018-08-20T01:56:21.591Z,101059.98
2018-08-20T01:56:43.343Z,101053.81
2018-08-20T01:57:05.417Z,101063.91
2018-08-20T01:57:27.171Z,101069.16
2018-08-20T01:57:48.928Z,101059.45
2018-08-20T01:58:10.693Z,101068.23
2018-08-20T01:58:32.438Z,101059.06
2018-08-20T01:58:54.202Z,101059.45
2018-08-20T01:59:15.961Z,101061.69
2018-08-20T01:59:38.510Z,101066.93
2018-08-20T02:00:00.287Z,101060.25
2018-08-20T02:00:22.047Z,101062.47
2018-08-20T02:00:43.802Z,101061.29
2018-08-20T02:01:05.557Z,101063.52
2018-08-20T02:01:27.308Z,101056.96
2018-08-20T02:01:49.060Z,101051.72
2018-08-20T02:02:10.812Z,101050.13
2018-08-20T02:02:32.562Z,101059.70
2018-08-20T02:02:55.179Z,101059.19
2018-08-20T02:03:16.937Z,101057.87
2018-08-20T02:03:38.683Z,101053.02
2018-08-20T02:04:00.435Z,101057.36
2018-08-20T02:04:22.218Z,101057.36
2018-08-20T02:04:43.973Z,101051.72
2018-08-20T02:05:05.737Z,101055.65
2018-08-20T02:05:27.478Z,101061.02
2018-08-20T02:05:49.235Z,101053.95
2018-08-20T02:06:10.994Z,101055.65
2018-08-20T02:06:32.753Z,101063.13
2018-08-20T02:06:54.519Z,101053.42
2018-08-20T02:07:16.273Z,101048.97
2018-08-20T02:07:38.260Z,101054.73
2018-08-20T02:08:00.154Z,101056.05
2018-08-20T02:08:21.914Z,101054.73
2018-08-20T02:08:43.684Z,101048.17
2018-08-20T02:09:05.434Z,101050.80
2018-08-20T02:09:27.192Z,101049.09
2018-08-20T02:09:49.231Z,101055.65
2018-08-20T02:10:11.024Z,101052.11
2018-08-20T02:10:32.791Z,101049.88
2018-08-20T02:10:54.755Z,101052.62
2018-08-20T02:11:16.500Z,101049.61
2018-08-20T02:11:38.283Z,101048.17
2018-08-20T02:12:00.031Z,101052.62
2018-08-20T02:12:21.780Z,101047.91
2018-08-20T02:12:43.544Z,101049.22
2018-08-20T02:13:05.295Z,101051.45
2018-08-20T02:13:27.043Z,101046.08
2018-08-20T02:13:48.794Z,101048.70
2018-08-20T02:14:10.553Z,101048.70
2018-08-20T02:14:32.323Z,101046.86
2018-08-20T02:14:54.076Z,101057.48
2018-08-20T02:15:15.835Z,101047.38
2018-08-20T02:15:37.886Z,101053.55
2018-08-20T02:15:59.636Z,101049.61
2018-08-20T02:16:21.395Z,101053.95
2018-08-20T02:16:43.164Z,101054.73
2018-08-20T02:17:04.953Z,101049.48
2018-08-20T02:17:26.717Z,101059.19
2018-08-20T02:17:48.463Z,101060.50
2018-08-20T02:18:10.561Z,101058.27
2018-08-20T02:18:32.320Z,101053.55
2018-08-20T02:18:54.117Z,101065.34
2018-08-20T02:19:15.844Z,101057.87
2018-08-20T02:19:37.614Z,101057.87
2018-08-20T02:19:59.378Z,101050.80
2018-08-20T02:20:21.142Z,101056.17
2018-08-20T02:20:42.888Z,101060.50
2018-08-20T02:21:04.646Z,101059.58
2018-08-20T02:21:26.386Z,101057.36
2018-08-20T02:21:48.134Z,101057.36
2018-08-20T02:22:09.886Z,101061.69
2018-08-20T02:22:31.890Z,101063.00
2018-08-20T02:22:53.671Z,101066.93
2018-08-20T02:23:15.417Z,101063.91
2018-08-20T02:23:37.188Z,101055.13
2018-08-20T02:23:58.947Z,101061.69
2018-08-20T02:24:20.682Z,101061.29
2018-08-20T02:24:42.423Z,101056.05
2018-08-20T02:25:04.194Z,101061.69
2018-08-20T02:25:25.974Z,101055.65
2018-08-20T02:25:47.736Z,101053.02
2018-08-20T02:26:09.477Z,101063.52
2018-08-20T02:26:31.246Z,101056.96
2018-08-20T02:26:53.011Z,101056.56
2018-08-20T02:27:14.754Z,101062.20
2018-08-20T02:27:36.510Z,101067.84
2018-08-20T02:27:58.255Z,101063.91
2018-08-20T02:28:20.002Z,101064.04
2018-08-20T02:28:41.747Z,101059.98
2018-08-20T02:29:03.494Z,101066.14
2018-08-20T02:29:25.250Z,101059.98
2018-08-20T02:29:46.997Z,101057.36
2018-08-20T02:30:09.296Z,101059.98
2018-08-20T02:30:31.047Z,101060.77
2018-08-20T02:30:52.821Z,101064.31
2018-08-20T02:31:14.578Z,101053.02
2018-08-20T02:31:36.329Z,101052.90
2018-08-20T02:31:58.112Z,101058.27
2018-08-20T02:32:19.854Z,101055.13
2018-08-20T02:32:41.609Z,101055.13
2018-08-20T02:33:03.350Z,101051.98
2018-08-20T02:33:25.108Z,101052.50
2018-08-20T02:33:46.861Z,101049.88
2018-08-20T02:34:08.607Z,101051.20
2018-08-20T02:34:30.369Z,101061.69
2018-08-20T02:34:52.419Z,101053.02
2018-08-20T02:35:14.183Z,101049.88
2018-08-20T02:35:35.944Z,101051.59
2018-08-20T02:35:57.729Z,101053.81
2018-08-20T02:36:19.498Z,101050.28
2018-08-20T02:36:41.394Z,101046.34
2018-08-20T02:37:03.148Z,101045.03
2018-08-20T02:37:24.905Z,101053.81
2018-08-20T02:37:48.670Z,101048.57
2018-08-20T02:38:10.428Z,101048.17
2018-08-20T02:38:32.175Z,101053.30
2018-08-20T02:38:53.929Z,101051.06
2018-08-20T02:39:15.698Z,101054.61
2018-08-20T02:39:37.457Z,101047.78
2018-08-20T02:39:59.201Z,101051.20
2018-08-20T02:40:20.971Z,101054.73
2018-08-20T02:40:42.729Z,101049.09
2018-08-20T02:41:04.516Z,101055.65
2018-08-20T02:41:26.288Z,101058.66
2018-08-20T02:41:48.634Z,101058.66
2018-08-20T02:42:10.374Z,101049.88
2018-08-20T02:42:32.131Z,101053.42
2018-08-20T02:42:53.896Z,101054.73
2018-08-20T02:43:15.698Z,101053.02
2018-08-20T02:43:37.482Z,101048.17
2018-08-20T02:43:59.256Z,101056.05
2018-08-20T02:44:21.005Z,101050.80
2018-08-20T02:44:42.765Z,101049.88
2018-08-20T02:45:04.511Z,101051.59
2018-08-20T02:45:26.313Z,101054.21
2018-08-20T02:45:48.070Z,101051.32
2018-08-20T02:46:09.835Z,101045.95
2018-08-20T02:46:31.601Z,101047.78
2018-08-20T02:46:53.367Z,101054.34
2018-08-20T02:47:15.142Z,101048.17
2018-08-20T02:47:36.928Z,101054.73
2018-08-20T02:47:58.679Z,101055.25
2018-08-20T02:48:20.426Z,101052.62
2018-08-20T02:48:42.178Z,101048.57
2018-08-20T02:49:03.942Z,101046.47
2018-08-20T02:49:25.697Z,101051.72
2018-08-20T02:49:47.459Z,101053.42
2018-08-20T02:50:09.739Z,101053.02
2018-08-20T02:50:31.512Z,101053.02
2018-08-20T02:50:53.280Z,101058.66
2018-08-20T02:51:15.038Z,101050.41
2018-08-20T02:51:36.790Z,101051.32
2018-08-20T02:51:58.553Z,101055.65
2018-08-20T02:52:20.839Z,101061.81
2018-08-20T02:52:43.586Z,101059.58
2018-08-20T02:53:05.340Z,101054.34
2018-08-20T02:53:27.090Z,101048.17
2018-08-20T02:53:48.847Z,101057.87
2018-08-20T02:54:11.298Z,101056.17
2018-08-20T02:54:33.123Z,101052.23
2018-08-20T02:54:54.867Z,101050.41
2018-08-20T02:55:16.626Z,101057.48
2018-08-20T02:55:38.412Z,101054.34
2018-08-20T02:56:00.162Z,101049.09
2018-08-20T02:56:21.939Z,101050.01
2018-08-20T02:56:43.784Z,101049.48
2018-08-20T02:57:05.531Z,101051.32
2018-08-20T02:57:27.312Z,101049.48
2018-08-20T02:57:49.100Z,101050.41
2018-08-20T02:58:10.850Z,101049.09
2018-08-20T02:58:32.598Z,101047.38
2018-08-20T02:58:54.343Z,101048.70
2018-08-20T02:59:16.106Z,101048.70
2018-08-20T02:59:37.851Z,101050.01
2018-08-20T02:59:59.598Z,101042.53
2018-08-20T03:00:21.346Z,101045.16
2018-08-20T03:00:43.093Z,101045.16
2018-08-20T03:01:04.834Z,101045.95
2018-08-20T03:01:26.798Z,101042.14
2018-08-20T03:01:48.554Z,101046.47
2018-08-20T03:02:10.331Z,101045.55
2018-08-20T03:02:32.075Z,101049.48
2018-08-20T03:02:53.830Z,101046.47
2018-08-20T03:03:15.593Z,101046.08
2018-08-20T03:03:37.360Z,101041.62
2018-08-20T03:03:59.137Z,101041.62
2018-08-20T03:04:20.898Z,101050.01
2018-08-20T03:04:42.655Z,101046.47
2018-08-20T03:05:04.411Z,101046.86
2018-08-20T03:05:26.191Z,101043.33
2018-08-20T03:05:47.947Z,101034.14
2018-08-20T03:06:09.694Z,101040.70
2018-08-20T03:06:31.445Z,101041.22
2018-08-20T03:06:53.200Z,101045.68
2018-08-20T03:07:14.977Z,101042.14
2018-08-20T03:07:36.777Z,101039.52
2018-08-20T03:07:58.533Z,101041.62
2018-08-20T03:08:20.286Z,101042.14
2018-08-20T03:08:42.056Z,101038.59
2018-08-20T03:09:04.346Z,101039.00
2018-08-20T03:09:26.116Z,101036.50
2018-08-20T03:09:47.859Z,101036.89
2018-08-20T03:10:10.283Z,101041.22
2018-08-20T03:10:32.051Z,101038.08
2018-08-20T03:10:53.805Z,101040.31
2018-08-20T03:11:15.548Z,101040.83
2018-08-20T03:11:37.638Z,101039.39
2018-08-20T03:11:59.431Z,101041.62
2018-08-20T03:12:21.220Z,101040.70
2018-08-20T03:12:43.005Z,101039.39
2018-08-20T03:13:04.770Z,101038.47
2018-08-20T03:13:26.540Z,101039.39
2018-08-20T03:13:48.515Z,101036.38
2018-08-20T03:14:10.729Z,101043.84
2018-08-20T03:14:32.501Z,101042.02
2018-08-20T03:14:54.268Z,101040.83
2018-08-20T03:15:16.022Z,101041.22
2018-08-20T03:15:37.790Z,101036.89
2018-08-20T03:15:59.545Z,101039.52
2018-08-20T03:16:21.348Z,101037.69
2018-08-20T03:16:43.069Z,101037.69
2018-08-20T03:17:04.836Z,101034.14
2018-08-20T03:17:26.652Z,101035.58
2018-08-20T03:17:48.390Z,101035.45
2018-08-20T03:18:10.152Z,101040.31
2018-08-20T03:18:31.901Z,101035.45
2018-08-20T03:18:53.697Z,101033.63
2018-08-20T03:19:15.480Z,101035.45
2018-08-20T03:19:37.251Z,101040.70
2018-08-20T03:19:59.039Z,101037.69
2018-08-20T03:20:20.844Z,101036.25
2018-08-20T03:20:42.611Z,101039.78
2018-08-20T03:21:04.378Z,101041.09
2018-08-20T03:21:26.136Z,101038.08
2018-08-20T03:21:47.888Z,101035.98
2018-08-20T03:22:09.674Z,101038.59
2018-08-20T03:22:31.457Z,101034.67
2018-08-20T03:22:53.268Z,101034.14
2018-08-20T03:23:15.017Z,101035.45
2018-08-20T03:23:36.775Z,101031.52
2018-08-20T03:23:58.535Z,101039.91
2018-08-20T03:24:20.281Z,101036.38
2018-08-20T03:24:42.033Z,101036.38
2018-08-20T03:25:03.791Z,101036.77
2018-08-20T03:25:25.560Z,101038.08
2018-08-20T03:25:47.330Z,101035.45
2018-08-20T03:26:09.091Z,101038.08
2018-08-20T03:26:31.154Z,101036.38
2018-08-20T03:26:52.898Z,101033.23
2018-08-20T03:27:14.655Z,101035.33
2018-08-20T03:27:36.601Z,101035.85
2018-08-20T03:27:58.368Z,101037.16
2018-08-20T03:28:20.120Z,101035.73
2018-08-20T03:28:41.872Z,101034.02
2018-08-20T03:29:03.642Z,101038.47
2018-08-20T03:29:25.397Z,101035.33
2018-08-20T03:29:47.179Z,101035.85
2018-08-20T03:31:12.177Z,101033.63
2018-08-20T03:31:33.951Z,101035.85
2018-08-20T03:31:55.701Z,101035.45
2018-08-20T03:32:17.469Z,101035.45
2018-08-20T03:32:40.010Z,101036.38
2018-08-20T03:33:01.767Z,101041.22
2018-08-20T03:33:23.518Z,101031.92
2018-08-20T03:33:45.266Z,101033.75
2018-08-20T03:34:07.028Z,101035.06
2018-08-20T03:34:28.791Z,101034.14
2018-08-20T03:34:50.551Z,101036.77
2018-08-20T03:35:12.308Z,101032.84
2018-08-20T03:35:34.063Z,101032.31
2018-08-20T03:35:55.828Z,101031.13
2018-08-20T03:36:17.578Z,101031.00
2018-08-20T03:36:39.338Z,101033.23
2018-08-20T03:37:01.590Z,101037.69
2018-08-20T03:37:23.338Z,101033.36
2018-08-20T03:37:45.128Z,101032.44
2018-08-20T03:38:06.900Z,101032.44
2018-08-20T03:38:28.719Z,101029.30
2018-08-20T03:38:50.516Z,101034.14
2018-08-20T03:39:12.266Z,101032.84
2018-08-20T03:39:34.023Z,101038.88
2018-08-20T03:39:55.830Z,101034.14
2018-08-20T03:40:17.588Z,101032.84
2018-08-20T03:40:39.330Z,101035.85
2018-08-20T03:41:01.092Z,101036.77
2018-08-20T03:41:22.851Z,101039.00
2018-08-20T03:41:44.631Z,101038.08
2018-08-20T03:42:06.387Z,101036.77
2018-08-20T03:42:28.135Z,101030.73
2018-08-20T03:42:49.880Z,101032.44
2018-08-20T03:43:11.635Z,101038.20
2018-08-20T03:43:33.390Z,101041.22
2018-08-20T03:43:55.142Z,101036.77
2018-08-20T03:44:16.904Z,101040.31
2018-08-20T03:44:38.676Z,101039.00
2018-08-20T03:45:00.431Z,101038.20
2018-08-20T03:45:22.175Z,101031.52
2018-08-20T03:45:43.949Z,101035.06
2018-08-20T03:46:05.775Z,101034.14
2018-08-20T03:46:27.552Z,101034.54
2018-08-20T03:46:49.348Z,101037.95
2018-08-20T03:47:11.094Z,101039.00
2018-08-20T03:47:32.835Z,101034.94
2018-08-20T03:47:54.596Z,101033.23
2018-08-20T03:48:16.338Z,101037.16
2018-08-20T03:48:38.099Z,101034.02
2018-08-20T03:48:59.857Z,101033.23
2018-08-20T03:49:21.607Z,101038.47
2018-08-20T03:49:43.493Z,101032.71
2018-08-20T03:50:05.242Z,101036.25
2018-08-20T03:50:26.996Z,101036.25
2018-08-20T03:50:48.788Z,101033.63
2018-08-20T03:51:10.596Z,101039.39
2018-08-20T03:51:32.368Z,101036.77
2018-08-20T03:51:54.134Z,101031.92
2018-08-20T03:52:15.942Z,101035.45
2018-08-20T03:52:37.758Z,101039.39
2018-08-20T03:52:59.514Z,101037.16
2018-08-20T03:53:21.265Z,101040.70
2018-08-20T03:53:43.031Z,101039.39
2018-08-20T03:54:05.015Z,101039.39
2018-08-20T03:54:26.758Z,101034.14
2018-08-20T03:54:48.524Z,101037.56
2018-08-20T03:55:10.324Z,101036.25
2018-08-20T03:55:32.095Z,101035.45
2018-08-20T03:55:53.873Z,101039.39
2018-08-20T03:56:15.613Z,101041.62
2018-08-20T03:56:37.422Z,101043.33
2018-08-20T03:56:59.188Z,101040.70
2018-08-20T03:57:20.952Z,101044.64
2018-08-20T03:57:42.762Z,101041.09
2018-08-20T03:58:04.510Z,101043.72
2018-08-20T03:58:26.278Z,101044.64
2018-08-20T03:58:48.043Z,101042.93
2018-08-20T03:59:10.996Z,101042.41
2018-08-20T03:59:33.091Z,101046.47
2018-08-20T03:59:54.846Z,101047.26
2018-08-20T04:00:19.075Z,101045.95
2018-08-20T04:00:40.832Z,101046.86
2018-08-20T04:01:02.677Z,101043.33
2018-08-20T04:01:24.620Z,101050.28
2018-08-20T04:01:46.387Z,101047.66
2018-08-20T04:02:08.538Z,101048.17
2018-08-20T04:02:30.310Z,101044.64
2018-08-20T04:02:52.075Z,101044.23
2018-08-20T04:03:13.830Z,101045.55
2018-08-20T04:03:35.635Z,101047.66
2018-08-20T04:03:57.455Z,101040.70
2018-08-20T04:04:19.222Z,101046.34
2018-08-20T04:04:40.974Z,101041.09
2018-08-20T04:05:02.791Z,101042.80
2018-08-20T04:05:24.606Z,101051.20
2018-08-20T04:05:46.403Z,101049.88
2018-08-20T04:06:08.208Z,101047.66
2018-08-20T04:06:29.926Z,101053.81
2018-08-20T04:06:51.684Z,101058.14
2018-08-20T04:07:13.434Z,101046.34
2018-08-20T04:07:35.212Z,101047.66
2018-08-20T04:07:56.959Z,101052.50
2018-08-20T04:08:18.707Z,101054.73
2018-08-20T04:08:40.463Z,101051.20
2018-08-20T04:09:02.765Z,101057.36
2018-08-20T04:09:24.688Z,101051.59
2018-08-20T04:09:46.513Z,101052.50
2018-08-20T04:10:08.296Z,101056.44
2018-08-20T04:10:30.060Z,101060.37
2018-08-20T04:10:51.816Z,101057.23
2018-08-20T04:11:13.584Z,101061.16